Rodanthe, North Carolina
Current Conditions -  °F | °C
As of 4:56 PM on Friday 31 Oct 2014 (Local Time) from K2DP Reporting Station
Broken Clouds Broken Clouds  
Wind Chill: 60°   Ceiling: 4000
Heat Index: 60°   Visibility: 10mi
Dew Point: 48°   Wind: 14mph
Humidity: 65%   Direction: 10°N
Pressure: 29.77"   Gusts: 18mph
Location:  35.59°N, 75.47°W
Report Text: K2DP 312056Z AUTO 01012G16KT 10SM BKN040 15/09 A2977 RMK AO2 LTG DSNT E SLPNO T01540089 57009
Loading
Personal Weather Stations






























Interactive Weather Map
Tropical Storm Tracking
New forecast layout! Learn more

10-Day Weather Forecast

Advertisements
Track Severe Weather on mobile